sensor_id;sensor_type;location;lat;lon;timestamp;pressure;altitude;pressure_sealevel;temperature;humidity
9439;BME280;5176;42.622;25.386;2023-01-08T00:00:16;97825.34;;;3.35;76.14
9439;BME280;5176;42.622;25.386;2023-01-08T00:02:44;97822.03;;;3.30;76.45
9439;BME280;5176;42.622;25.386;2023-01-08T00:05:14;97820.69;;;3.13;77.16
9439;BME280;5176;42.622;25.386;2023-01-08T00:07:41;97811.31;;;3.09;78.47
9439;BME280;5176;42.622;25.386;2023-01-08T00:10:09;97820.63;;;3.16;79.62
9439;BME280;5176;42.622;25.386;2023-01-08T00:12:36;97825.81;;;3.16;80.05
9439;BME280;5176;42.622;25.386;2023-01-08T00:15:04;97827.63;;;3.13;80.63
9439;BME280;5176;42.622;25.386;2023-01-08T00:17:31;97826.72;;;3.14;81.14
9439;BME280;5176;42.622;25.386;2023-01-08T00:20:00;97828.31;;;3.19;81.22
9439;BME280;5176;42.622;25.386;2023-01-08T00:22:27;97825.66;;;3.22;80.34
9439;BME280;5176;42.622;25.386;2023-01-08T00:24:55;97827.63;;;3.13;79.61
9439;BME280;5176;42.622;25.386;2023-01-08T00:27:22;97819.13;;;3.08;79.30
9439;BME280;5176;42.622;25.386;2023-01-08T00:29:49;97826.59;;;2.84;79.95
9439;BME280;5176;42.622;25.386;2023-01-08T00:32:16;97822.59;;;2.71;80.48
9439;BME280;5176;42.622;25.386;2023-01-08T00:34:44;97826.03;;;2.71;80.96
9439;BME280;5176;42.622;25.386;2023-01-08T00:37:12;97824.22;;;2.75;81.34
9439;BME280;5176;42.622;25.386;2023-01-08T00:39:43;97824.00;;;2.84;80.89
9439;BME280;5176;42.622;25.386;2023-01-08T00:42:11;97819.63;;;2.88;81.43
9439;BME280;5176;42.622;25.386;2023-01-08T00:44:38;97822.06;;;2.92;82.12
9439;BME280;5176;42.622;25.386;2023-01-08T00:47:05;97824.50;;;2.98;82.14
9439;BME280;5176;42.622;25.386;2023-01-08T00:49:33;97820.19;;;2.99;82.28
9439;BME280;5176;42.622;25.386;2023-01-08T00:52:00;97813.97;;;3.06;82.42
9439;BME280;5176;42.622;25.386;2023-01-08T00:54:29;97819.97;;;3.08;81.25
9439;BME280;5176;42.622;25.386;2023-01-08T00:56:56;97823.31;;;3.12;81.45
9439;BME280;5176;42.622;25.386;2023-01-08T00:59:23;97827.66;;;3.11;81.24
9439;BME280;5176;42.622;25.386;2023-01-08T01:01:50;97821.63;;;3.11;81.78
9439;BME280;5176;42.622;25.386;2023-01-08T01:04:18;97809.06;;;2.95;81.30
9439;BME280;5176;42.622;25.386;2023-01-08T01:06:46;97824.69;;;2.91;81.53
9439;BME280;5176;42.622;25.386;2023-01-08T01:09:13;97822.34;;;2.80;81.35
9439;BME280;5176;42.622;25.386;2023-01-08T01:11:42;97821.50;;;2.81;82.21
9439;BME280;5176;42.622;25.386;2023-01-08T01:14:09;97823.06;;;2.88;82.27
9439;BME280;5176;42.622;25.386;2023-01-08T01:16:36;97825.63;;;2.88;82.44
9439;BME280;5176;42.622;25.386;2023-01-08T01:19:04;97816.84;;;2.94;82.03
9439;BME280;5176;42.622;25.386;2023-01-08T01:21:32;97817.78;;;2.91;82.07
9439;BME280;5176;42.622;25.386;2023-01-08T01:24:01;97822.22;;;2.86;82.19
9439;BME280;5176;42.622;25.386;2023-01-08T01:26:29;97806.69;;;2.86;82.93
9439;BME280;5176;42.622;25.386;2023-01-08T01:28:59;97802.25;;;2.91;82.57
9439;BME280;5176;42.622;25.386;2023-01-08T01:31:29;97801.44;;;2.89;82.43
9439;BME280;5176;42.622;25.386;2023-01-08T01:33:57;97802.94;;;2.98;81.88
9439;BME280;5176;42.622;25.386;2023-01-08T01:36:24;97804.59;;;3.02;81.55
9439;BME280;5176;42.622;25.386;2023-01-08T01:38:53;97806.28;;;3.03;81.45
9439;BME280;5176;42.622;25.386;2023-01-08T01:41:24;97800.47;;;2.93;81.56
9439;BME280;5176;42.622;25.386;2023-01-08T01:43:53;97794.44;;;2.93;82.03
9439;BME280;5176;42.622;25.386;2023-01-08T01:46:34;97782.47;;;2.89;82.87
9439;BME280;5176;42.622;25.386;2023-01-08T01:49:05;97780.09;;;2.80;83.02
9439;BME280;5176;42.622;25.386;2023-01-08T01:51:35;97788.78;;;2.77;83.83
9439;BME280;5176;42.622;25.386;2023-01-08T01:54:06;97791.44;;;2.74;83.91
9439;BME280;5176;42.622;25.386;2023-01-08T01:56:35;97789.72;;;2.73;83.65
9439;BME280;5176;42.622;25.386;2023-01-08T01:59:03;97791.41;;;2.76;82.47
9439;BME280;5176;42.622;25.386;2023-01-08T02:01:33;97786.97;;;2.81;81.98
9439;BME280;5176;42.622;25.386;2023-01-08T02:04:00;97794.72;;;2.82;81.38
9439;BME280;5176;42.622;25.386;2023-01-08T02:06:34;97785.16;;;2.84;81.42
9439;BME280;5176;42.622;25.386;2023-01-08T02:09:08;97785.97;;;2.86;81.03
9439;BME280;5176;42.622;25.386;2023-01-08T02:11:44;97791.19;;;2.85;80.77
9439;BME280;5176;42.622;25.386;2023-01-08T02:14:18;97789.44;;;2.85;80.83
9439;BME280;5176;42.622;25.386;2023-01-08T02:16:55;97787.84;;;2.81;80.77
9439;BME280;5176;42.622;25.386;2023-01-08T02:19:33;97791.41;;;2.76;81.10
9439;BME280;5176;42.622;25.386;2023-01-08T02:22:13;97792.25;;;2.76;80.85
9439;BME280;5176;42.622;25.386;2023-01-08T02:24:50;97788.03;;;2.72;82.04
9439;BME280;5176;42.622;25.386;2023-01-08T02:27:23;97779.69;;;2.61;83.49
9439;BME280;5176;42.622;25.386;2023-01-08T02:29:52;97781.41;;;2.62;83.24
9439;BME280;5176;42.622;25.386;2023-01-08T02:32:24;97778.81;;;2.62;83.35
9439;BME280;5176;42.622;25.386;2023-01-08T02:34:52;97783.94;;;2.63;83.96
9439;BME280;5176;42.622;25.386;2023-01-08T02:37:19;97786.47;;;2.65;83.29
9439;BME280;5176;42.622;25.386;2023-01-08T02:40:02;97780.88;;;2.48;83.10
9439;BME280;5176;42.622;25.386;2023-01-08T02:42:39;97785.16;;;2.47;82.43
9439;BME280;5176;42.622;25.386;2023-01-08T02:45:20;97782.56;;;2.49;81.41
9439;BME280;5176;42.622;25.386;2023-01-08T02:47:54;97777.88;;;2.26;81.95
9439;BME280;5176;42.622;25.386;2023-01-08T02:50:30;97778.94;;;2.17;82.24
9439;BME280;5176;42.622;25.386;2023-01-08T02:53:03;97775.69;;;2.09;81.75
9439;BME280;5176;42.622;25.386;2023-01-08T02:55:34;97775.56;;;2.13;81.95
9439;BME280;5176;42.622;25.386;2023-01-08T02:58:04;97785.06;;;2.14;82.03
9439;BME280;5176;42.622;25.386;2023-01-08T03:00:32;97779.00;;;2.15;82.29
9439;BME280;5176;42.622;25.386;2023-01-08T03:03:05;97778.19;;;2.12;83.01
9439;BME280;5176;42.622;25.386;2023-01-08T03:05:35;97776.66;;;2.03;83.84
9439;BME280;5176;42.622;25.386;2023-01-08T03:08:04;97776.56;;;2.08;84.02
9439;BME280;5176;42.622;25.386;2023-01-08T03:10:32;97771.31;;;2.11;84.80
9439;BME280;5176;42.622;25.386;2023-01-08T03:13:07;97774.66;;;2.16;85.00
9439;BME280;5176;42.622;25.386;2023-01-08T03:15:42;97775.44;;;2.19;84.84
9439;BME280;5176;42.622;25.386;2023-01-08T03:18:16;97772.09;;;2.16;85.98
9439;BME280;5176;42.622;25.386;2023-01-08T03:20:45;97771.22;;;2.15;86.29
9439;BME280;5176;42.622;25.386;2023-01-08T03:23:15;97771.97;;;2.21;86.45
9439;BME280;5176;42.622;25.386;2023-01-08T03:25:46;97769.22;;;2.27;86.35
9439;BME280;5176;42.622;25.386;2023-01-08T03:28:19;97773.50;;;2.29;86.50
9439;BME280;5176;42.622;25.386;2023-01-08T03:30:48;97772.66;;;2.27;85.17
9439;BME280;5176;42.622;25.386;2023-01-08T03:33:17;97766.69;;;2.25;83.63
9439;BME280;5176;42.622;25.386;2023-01-08T03:35:47;97771.09;;;2.20;82.39
9439;BME280;5176;42.622;25.386;2023-01-08T03:38:18;97769.41;;;2.19;81.75
9439;BME280;5176;42.622;25.386;2023-01-08T03:40:50;97760.16;;;2.09;80.85
9439;BME280;5176;42.622;25.386;2023-01-08T03:43:19;97768.78;;;2.09;80.31
9439;BME280;5176;42.622;25.386;2023-01-08T03:45:49;97773.19;;;2.04;80.37
9439;BME280;5176;42.622;25.386;2023-01-08T03:48:18;97773.31;;;1.98;79.92
9439;BME280;5176;42.622;25.386;2023-01-08T03:50:47;97775.25;;;1.88;80.68
9439;BME280;5176;42.622;25.386;2023-01-08T03:53:14;97779.91;;;1.71;82.24
9439;BME280;5176;42.622;25.386;2023-01-08T03:55:41;97764.75;;;1.54;84.28
9439;BME280;5176;42.622;25.386;2023-01-08T03:58:09;97778.31;;;1.64;86.37
9439;BME280;5176;42.622;25.386;2023-01-08T04:00:37;97775.53;;;1.73;86.54
9439;BME280;5176;42.622;25.386;2023-01-08T04:03:05;97781.41;;;1.83;85.39
9439;BME280;5176;42.622;25.386;2023-01-08T04:05:32;97786.47;;;1.87;83.50
9439;BME280;5176;42.622;25.386;2023-01-08T04:07:59;97786.47;;;1.87;82.68
9439;BME280;5176;42.622;25.386;2023-01-08T04:10:26;97791.66;;;1.86;81.60
9439;BME280;5176;42.622;25.386;2023-01-08T04:12:53;97783.97;;;1.83;81.32
9439;BME280;5176;42.622;25.386;2023-01-08T04:15:20;97788.19;;;1.88;80.38
9439;BME280;5176;42.622;25.386;2023-01-08T04:17:49;97786.44;;;1.89;80.33
9439;BME280;5176;42.622;25.386;2023-01-08T04:20:16;97791.63;;;1.89;80.16
9439;BME280;5176;42.622;25.386;2023-01-08T04:22:43;97789.06;;;1.86;80.38
9439;BME280;5176;42.622;25.386;2023-01-08T04:25:11;97788.31;;;1.82;80.31
9439;BME280;5176;42.622;25.386;2023-01-08T04:27:38;97781.47;;;1.78;81.27
9439;BME280;5176;42.622;25.386;2023-01-08T04:30:06;97779.78;;;1.77;81.06
9439;BME280;5176;42.622;25.386;2023-01-08T04:32:33;97782.44;;;1.74;81.30
9439;BME280;5176;42.622;25.386;2023-01-08T04:35:02;97783.28;;;1.75;81.45
9439;BME280;5176;42.622;25.386;2023-01-08T04:37:29;97787.63;;;1.73;81.66
9439;BME280;5176;42.622;25.386;2023-01-08T04:39:56;97791.09;;;1.72;80.64
9439;BME280;5176;42.622;25.386;2023-01-08T04:42:23;97783.38;;;1.70;81.56
9439;BME280;5176;42.622;25.386;2023-01-08T04:44:50;97789.41;;;1.71;81.44
9439;BME280;5176;42.622;25.386;2023-01-08T04:47:17;97783.41;;;1.69;81.34
9439;BME280;5176;42.622;25.386;2023-01-08T04:49:44;97789.47;;;1.66;81.48
9439;BME280;5176;42.622;25.386;2023-01-08T04:52:13;97786.00;;;1.67;81.34
9439;BME280;5176;42.622;25.386;2023-01-08T04:54:40;97782.59;;;1.65;81.87
9439;BME280;5176;42.622;25.386;2023-01-08T04:57:07;97776.72;;;1.58;81.52
9439;BME280;5176;42.622;25.386;2023-01-08T04:59:34;97791.28;;;1.62;81.30
9439;BME280;5176;42.622;25.386;2023-01-08T05:02:01;97789.59;;;1.61;81.20
9439;BME280;5176;42.622;25.386;2023-01-08T05:04:29;97794.75;;;1.61;82.59
9439;BME280;5176;42.622;25.386;2023-01-08T05:06:56;97795.56;;;1.63;82.92
9439;BME280;5176;42.622;25.386;2023-01-08T05:09:24;97795.59;;;1.60;83.83
9439;BME280;5176;42.622;25.386;2023-01-08T05:11:51;97794.72;;;1.63;85.11
9439;BME280;5176;42.622;25.386;2023-01-08T05:14:20;97799.84;;;1.64;85.10
9439;BME280;5176;42.622;25.386;2023-01-08T05:16:47;97800.78;;;1.62;85.41
9439;BME280;5176;42.622;25.386;2023-01-08T05:19:15;97803.31;;;1.63;85.66
9439;BME280;5176;42.622;25.386;2023-01-08T05:21:42;97804.09;;;1.67;85.49
9439;BME280;5176;42.622;25.386;2023-01-08T05:24:09;97800.81;;;1.59;84.87
9439;BME280;5176;42.622;25.386;2023-01-08T05:26:37;97811.34;;;1.50;84.27
9439;BME280;5176;42.622;25.386;2023-01-08T05:29:04;97806.19;;;1.47;83.79
9439;BME280;5176;42.622;25.386;2023-01-08T05:31:32;97803.66;;;1.45;83.37
9439;BME280;5176;42.622;25.386;2023-01-08T05:33:59;97813.31;;;1.35;84.02
9439;BME280;5176;42.622;25.386;2023-01-08T05:36:26;97809.97;;;1.30;84.33
9439;BME280;5176;42.622;25.386;2023-01-08T05:38:53;97812.47;;;1.33;85.59
9439;BME280;5176;42.622;25.386;2023-01-08T05:41:20;97808.38;;;1.23;84.92
9439;BME280;5176;42.622;25.386;2023-01-08T05:43:49;97811.19;;;1.09;86.03
9439;BME280;5176;42.622;25.386;2023-01-08T05:46:16;97808.84;;;0.96;86.06
9439;BME280;5176;42.622;25.386;2023-01-08T05:48:43;97805.50;;;0.89;87.54
9439;BME280;5176;42.622;25.386;2023-01-08T05:51:11;97812.38;;;0.90;88.94
9439;BME280;5176;42.622;25.386;2023-01-08T05:53:38;97815.13;;;0.79;89.27
9439;BME280;5176;42.622;25.386;2023-01-08T05:56:07;97813.50;;;0.74;89.81
9439;BME280;5176;42.622;25.386;2023-01-08T05:58:34;97811.91;;;0.65;90.61
9439;BME280;5176;42.622;25.386;2023-01-08T06:01:04;97814.38;;;0.71;90.39
9439;BME280;5176;42.622;25.386;2023-01-08T06:03:32;97815.22;;;0.75;90.78
9439;BME280;5176;42.622;25.386;2023-01-08T06:05:59;97828.03;;;0.78;90.39
9439;BME280;5176;42.622;25.386;2023-01-08T06:08:27;97815.22;;;0.75;90.54
9439;BME280;5176;42.622;25.386;2023-01-08T06:10:57;97821.13;;;0.81;91.66
9439;BME280;5176;42.622;25.386;2023-01-08T06:13:24;97824.28;;;0.99;91.20
9439;BME280;5176;42.622;25.386;2023-01-08T06:15:52;97824.88;;;1.15;90.27
9439;BME280;5176;42.622;25.386;2023-01-08T06:18:20;97835.81;;;1.29;88.40
9439;BME280;5176;42.622;25.386;2023-01-08T06:20:47;97838.31;;;1.35;88.52
9439;BME280;5176;42.622;25.386;2023-01-08T06:23:14;97835.41;;;1.52;87.04
9439;BME280;5176;42.622;25.386;2023-01-08T06:25:42;97836.88;;;1.65;86.02
9439;BME280;5176;42.622;25.386;2023-01-08T06:28:09;97832.41;;;1.75;86.06
9439;BME280;5176;42.622;25.386;2023-01-08T06:30:36;97834.72;;;1.87;86.78
9439;BME280;5176;42.622;25.386;2023-01-08T06:33:03;97842.13;;;2.05;86.65
9439;BME280;5176;42.622;25.386;2023-01-08T06:35:32;97842.84;;;2.12;86.67
9439;BME280;5176;42.622;25.386;2023-01-08T06:37:59;97842.59;;;2.24;85.79
9439;BME280;5176;42.622;25.386;2023-01-08T06:40:27;97844.97;;;2.33;84.79
9439;BME280;5176;42.622;25.386;2023-01-08T06:42:54;97837.22;;;2.35;84.91
9439;BME280;5176;42.622;25.386;2023-01-08T06:45:21;97837.81;;;2.46;84.89
9439;BME280;5176;42.622;25.386;2023-01-08T06:47:48;97844.38;;;2.62;83.03
9439;BME280;5176;42.622;25.386;2023-01-08T06:50:15;97840.81;;;2.66;82.21
9439;BME280;5176;42.622;25.386;2023-01-08T06:52:51;97841.41;;;2.78;81.87
9439;BME280;5176;42.622;25.386;2023-01-08T06:55:19;97851.53;;;2.88;81.20
9439;BME280;5176;42.622;25.386;2023-01-08T06:57:46;97849.22;;;2.76;81.42
9439;BME280;5176;42.622;25.386;2023-01-08T07:00:14;97853.72;;;2.68;81.90
9439;BME280;5176;42.622;25.386;2023-01-08T07:02:41;97854.22;;;2.84;81.85
9439;BME280;5176;42.622;25.386;2023-01-08T07:05:08;97859.31;;;2.88;81.81
9439;BME280;5176;42.622;25.386;2023-01-08T07:07:36;97865.22;;;2.93;81.91
9439;BME280;5176;42.622;25.386;2023-01-08T07:10:05;97862.34;;;3.06;82.37
9439;BME280;5176;42.622;25.386;2023-01-08T07:12:32;97865.78;;;3.40;80.80
9439;BME280;5176;42.622;25.386;2023-01-08T07:15:00;97866.66;;;3.73;78.91
9439;BME280;5176;42.622;25.386;2023-01-08T07:17:27;97868.72;;;3.95;77.73
9439;BME280;5176;42.622;25.386;2023-01-08T07:19:54;97864.00;;;4.07;76.69
9439;BME280;5176;42.622;25.386;2023-01-08T07:22:22;97867.47;;;4.08;77.45
9439;BME280;5176;42.622;25.386;2023-01-08T07:24:50;97866.41;;;4.14;77.70
9439;BME280;5176;42.622;25.386;2023-01-08T07:27:18;97873.75;;;4.30;77.57
9439;BME280;5176;42.622;25.386;2023-01-08T07:29:46;97866.53;;;4.40;77.29
9439;BME280;5176;42.622;25.386;2023-01-08T07:32:13;97871.03;;;4.33;78.27
9439;BME280;5176;42.622;25.386;2023-01-08T07:34:40;97870.44;;;4.55;78.34
9439;BME280;5176;42.622;25.386;2023-01-08T07:37:07;97871.13;;;4.89;77.17
9439;BME280;5176;42.622;25.386;2023-01-08T07:39:34;97873.94;;;5.10;76.72
9439;BME280;5176;42.622;25.386;2023-01-08T07:42:01;97863.44;;;5.39;75.84
9439;BME280;5176;42.622;25.386;2023-01-08T07:44:30;97871.34;;;5.63;74.98
9439;BME280;5176;42.622;25.386;2023-01-08T07:46:57;97870.47;;;5.62;74.62
9439;BME280;5176;42.622;25.386;2023-01-08T07:49:25;97870.38;;;5.90;73.57
9439;BME280;5176;42.622;25.386;2023-01-08T07:51:52;97872.75;;;5.98;73.34
9439;BME280;5176;42.622;25.386;2023-01-08T07:54:19;97874.47;;;6.22;72.59
9439;BME280;5176;42.622;25.386;2023-01-08T07:56:46;97873.22;;;6.56;70.52
9439;BME280;5176;42.622;25.386;2023-01-08T07:59:13;97869.56;;;6.83;68.37
9439;BME280;5176;42.622;25.386;2023-01-08T08:01:42;97872.41;;;6.99;68.22
9439;BME280;5176;42.622;25.386;2023-01-08T08:04:09;97876.53;;;7.27;66.47
9439;BME280;5176;42.622;25.386;2023-01-08T08:06:37;97876.63;;;7.46;65.65
9439;BME280;5176;42.622;25.386;2023-01-08T08:09:04;97879.00;;;7.52;65.54
9439;BME280;5176;42.622;25.386;2023-01-08T08:11:31;97873.56;;;7.36;66.50
9439;BME280;5176;42.622;25.386;2023-01-08T08:13:59;97875.69;;;7.26;66.73
9439;BME280;5176;42.622;25.386;2023-01-08T08:16:26;97871.97;;;7.32;67.58
9439;BME280;5176;42.622;25.386;2023-01-08T08:18:56;97869.81;;;7.63;66.27
9439;BME280;5176;42.622;25.386;2023-01-08T08:21:24;97869.06;;;8.01;63.17
9439;BME280;5176;42.622;25.386;2023-01-08T08:23:51;97880.91;;;8.28;62.39
9439;BME280;5176;42.622;25.386;2023-01-08T08:26:18;97881.47;;;8.16;63.05
9439;BME280;5176;42.622;25.386;2023-01-08T08:28:46;97883.22;;;8.36;62.65
9439;BME280;5176;42.622;25.386;2023-01-08T08:31:13;97879.44;;;8.62;62.48
9439;BME280;5176;42.622;25.386;2023-01-08T08:33:41;97873.56;;;8.94;61.20
9439;BME280;5176;42.622;25.386;2023-01-08T08:36:10;97876.72;;;9.20;60.51
9439;BME280;5176;42.622;25.386;2023-01-08T08:38:37;97874.59;;;9.45;57.76
9439;BME280;5176;42.622;25.386;2023-01-08T08:41:05;97869.59;;;9.58;57.70
9439;BME280;5176;42.622;25.386;2023-01-08T08:43:33;97875.00;;;9.72;57.47
9439;BME280;5176;42.622;25.386;2023-01-08T08:46:00;97874.38;;;9.50;57.32
9439;BME280;5176;42.622;25.386;2023-01-08T08:48:27;97871.97;;;9.45;57.41
9439;BME280;5176;42.622;25.386;2023-01-08T08:50:54;97874.22;;;9.53;57.55
9439;BME280;5176;42.622;25.386;2023-01-08T08:53:23;97868.69;;;9.59;57.64
9439;BME280;5176;42.622;25.386;2023-01-08T08:55:50;97871.50;;;9.89;56.88
9439;BME280;5176;42.622;25.386;2023-01-08T08:58:17;97866.56;;;10.18;55.81
9439;BME280;5176;42.622;25.386;2023-01-08T09:00:44;97865.03;;;10.31;55.10
9439;BME280;5176;42.622;25.386;2023-01-08T09:03:12;97862.22;;;10.34;55.70
9439;BME280;5176;42.622;25.386;2023-01-08T09:05:40;97858.31;;;10.58;54.70
9439;BME280;5176;42.622;25.386;2023-01-08T09:08:08;97854.34;;;10.83;54.77
9439;BME280;5176;42.622;25.386;2023-01-08T09:10:38;97855.19;;;10.99;52.21
9439;BME280;5176;42.622;25.386;2023-01-08T09:13:06;97846.22;;;10.87;52.57
9439;BME280;5176;42.622;25.386;2023-01-08T09:15:35;97850.59;;;11.03;52.70
9439;BME280;5176;42.622;25.386;2023-01-08T09:18:02;97854.06;;;11.03;52.15
9439;BME280;5176;42.622;25.386;2023-01-08T09:20:30;97837.16;;;11.09;52.34
9439;BME280;5176;42.622;25.386;2023-01-08T09:22:57;97832.28;;;11.33;52.26
9439;BME280;5176;42.622;25.386;2023-01-08T09:25:24;97829.47;;;11.36;50.93
9439;BME280;5176;42.622;25.386;2023-01-08T09:27:59;97840.97;;;11.49;51.15
9439;BME280;5176;42.622;25.386;2023-01-08T09:30:27;97834.34;;;11.58;50.33
9439;BME280;5176;42.622;25.386;2023-01-08T09:32:57;97835.81;;;11.48;50.49
9439;BME280;5176;42.622;25.386;2023-01-08T09:35:25;97827.84;;;11.49;50.29
9439;BME280;5176;42.622;25.386;2023-01-08T09:37:53;97811.25;;;11.49;50.47
9439;BME280;5176;42.622;25.386;2023-01-08T09:40:21;97817.34;;;11.49;50.51
9439;BME280;5176;42.622;25.386;2023-01-08T09:42:53;97818.41;;;11.61;50.83
9439;BME280;5176;42.622;25.386;2023-01-08T09:45:25;97814.38;;;11.69;50.06
9439;BME280;5176;42.622;25.386;2023-01-08T09:47:54;97809.03;;;12.01;50.69
9439;BME280;5176;42.622;25.386;2023-01-08T09:50:24;97809.41;;;12.09;49.76
9439;BME280;5176;42.622;25.386;2023-01-08T09:52:53;97802.28;;;12.25;49.40
9439;BME280;5176;42.622;25.386;2023-01-08T09:55:20;97786.28;;;12.43;49.48
9439;BME280;5176;42.622;25.386;2023-01-08T09:57:48;97795.03;;;12.43;49.43
9439;BME280;5176;42.622;25.386;2023-01-08T10:00:18;97782.78;;;12.57;48.18
9439;BME280;5176;42.622;25.386;2023-01-08T10:02:48;97787.94;;;12.31;49.40
9439;BME280;5176;42.622;25.386;2023-01-08T10:05:17;97775.22;;;12.23;49.49
9439;BME280;5176;42.622;25.386;2023-01-08T10:07:45;97779.56;;;12.39;49.58
9439;BME280;5176;42.622;25.386;2023-01-08T10:10:18;97770.91;;;12.51;49.67
9439;BME280;5176;42.622;25.386;2023-01-08T10:12:46;97769.28;;;12.48;49.23
9439;BME280;5176;42.622;25.386;2023-01-08T10:15:16;97764.94;;;12.62;48.60
9439;BME280;5176;42.622;25.386;2023-01-08T10:17:46;97761.56;;;12.60;49.03
9439;BME280;5176;42.622;25.386;2023-01-08T10:20:18;97752.31;;;12.81;48.59
9439;BME280;5176;42.622;25.386;2023-01-08T10:22:47;97754.59;;;12.73;48.85
9439;BME280;5176;42.622;25.386;2023-01-08T10:25:16;97750.19;;;12.73;48.86
9439;BME280;5176;42.622;25.386;2023-01-08T10:27:49;97739.97;;;12.54;48.75
9439;BME280;5176;42.622;25.386;2023-01-08T10:30:18;97731.75;;;12.73;48.67
9439;BME280;5176;42.622;25.386;2023-01-08T10:32:47;97729.75;;;12.77;48.83
9439;BME280;5176;42.622;25.386;2023-01-08T10:35:20;97729.03;;;12.75;48.57
9439;BME280;5176;42.622;25.386;2023-01-08T10:37:48;97723.59;;;12.78;48.24
9439;BME280;5176;42.622;25.386;2023-01-08T10:40:26;97719.09;;;12.93;48.38
9439;BME280;5176;42.622;25.386;2023-01-08T10:42:56;97720.94;;;13.05;47.58
9439;BME280;5176;42.622;25.386;2023-01-08T10:45:26;97715.44;;;13.08;47.38
9439;BME280;5176;42.622;25.386;2023-01-08T10:47:56;97717.13;;;13.09;47.73
9439;BME280;5176;42.622;25.386;2023-01-08T10:50:29;97710.72;;;13.13;47.57
9439;BME280;5176;42.622;25.386;2023-01-08T10:52:58;97709.28;;;13.22;47.46
9439;BME280;5176;42.622;25.386;2023-01-08T10:55:28;97704.75;;;13.24;46.78
9439;BME280;5176;42.622;25.386;2023-01-08T10:57:58;97701.53;;;13.33;46.78
9439;BME280;5176;42.622;25.386;2023-01-08T11:00:28;97697.66;;;13.39;46.08
9439;BME280;5176;42.622;25.386;2023-01-08T11:02:56;97697.66;;;13.39;46.08
9439;BME280;5176;42.622;25.386;2023-01-08T11:05:32;97679.44;;;13.08;46.40
9439;BME280;5176;42.622;25.386;2023-01-08T11:08:01;97695.59;;;13.29;46.75
9439;BME280;5176;42.622;25.386;2023-01-08T11:10:32;97672.88;;;13.41;46.69
9439;BME280;5176;42.622;25.386;2023-01-08T11:13:01;97686.06;;;13.67;45.85
9439;BME280;5176;42.622;25.386;2023-01-08T11:15:32;97689.94;;;13.61;44.21
9439;BME280;5176;42.622;25.386;2023-01-08T11:18:18;97683.94;;;13.72;43.56
9439;BME280;5176;42.622;25.386;2023-01-08T11:20:48;97685.81;;;13.70;44.23
9439;BME280;5176;42.622;25.386;2023-01-08T11:23:18;97691.75;;;13.73;43.77
9439;BME280;5176;42.622;25.386;2023-01-08T11:26:00;97686.78;;;13.81;43.76
9439;BME280;5176;42.622;25.386;2023-01-08T11:28:42;97693.53;;;13.60;43.90
9439;BME280;5176;42.622;25.386;2023-01-08T11:31:14;97690.69;;;13.63;43.99
9439;BME280;5176;42.622;25.386;2023-01-08T11:33:44;97680.38;;;13.47;44.75
9439;BME280;5176;42.622;25.386;2023-01-08T11:36:21;97681.09;;;13.49;45.07
9439;BME280;5176;42.622;25.386;2023-01-08T11:38:50;97676.25;;;13.56;44.69
9439;BME280;5176;42.622;25.386;2023-01-08T11:41:37;97676.66;;;13.62;44.63
9439;BME280;5176;42.622;25.386;2023-01-08T11:44:22;97670.97;;;13.69;44.75
9439;BME280;5176;42.622;25.386;2023-01-08T11:47:01;97669.28;;;13.55;45.18
9439;BME280;5176;42.622;25.386;2023-01-08T11:49:56;97637.38;;;13.59;45.10
9439;BME280;5176;42.622;25.386;2023-01-08T11:52:37;97641.28;;;13.54;45.28
9439;BME280;5176;42.622;25.386;2023-01-08T11:55:19;97637.56;;;13.56;45.47
9439;BME280;5176;42.622;25.386;2023-01-08T11:58:02;97652.22;;;13.73;45.07
9439;BME280;5176;42.622;25.386;2023-01-08T12:00:46;97656.09;;;13.93;44.91
9439;BME280;5176;42.622;25.386;2023-01-08T12:03:25;97654.69;;;14.00;45.12
9439;BME280;5176;42.622;25.386;2023-01-08T12:06:02;97650.19;;;13.89;45.08
9439;BME280;5176;42.622;25.386;2023-01-08T12:08:37;97645.34;;;13.83;45.16
9439;BME280;5176;42.622;25.386;2023-01-08T12:11:13;97652.38;;;13.96;44.28
9439;BME280;5176;42.622;25.386;2023-01-08T12:13:53;97646.50;;;13.92;44.31
9439;BME280;5176;42.622;25.386;2023-01-08T12:16:37;97649.34;;;13.89;44.57
9439;BME280;5176;42.622;25.386;2023-01-08T12:19:21;97641.41;;;14.02;44.65
9439;BME280;5176;42.622;25.386;2023-01-08T12:22:01;97631.50;;;14.05;44.46
9439;BME280;5176;42.622;25.386;2023-01-08T12:24:49;97606.34;;;13.88;44.28
9439;BME280;5176;42.622;25.386;2023-01-08T12:27:26;97634.13;;;14.05;44.37
9439;BME280;5176;42.622;25.386;2023-01-08T12:30:06;97633.34;;;13.79;44.76
9439;BME280;5176;42.622;25.386;2023-01-08T12:32:42;97638.41;;;13.57;44.97
9439;BME280;5176;42.622;25.386;2023-01-08T12:35:16;97630.84;;;13.52;45.28
9439;BME280;5176;42.622;25.386;2023-01-08T12:37:49;97635.06;;;13.55;45.08
9439;BME280;5176;42.622;25.386;2023-01-08T12:40:23;97628.84;;;13.56;45.31
9439;BME280;5176;42.622;25.386;2023-01-08T12:42:53;97623.38;;;13.59;44.88
9439;BME280;5176;42.622;25.386;2023-01-08T12:45:26;97618.41;;;13.54;45.11
9439;BME280;5176;42.622;25.386;2023-01-08T12:47:58;97627.56;;;13.61;45.24
9439;BME280;5176;42.622;25.386;2023-01-08T12:50:39;97609.78;;;13.52;45.04
9439;BME280;5176;42.622;25.386;2023-01-08T12:53:13;97636.97;;;13.66;45.12
9439;BME280;5176;42.622;25.386;2023-01-08T12:55:47;97631.97;;;13.74;44.90
9439;BME280;5176;42.622;25.386;2023-01-08T12:58:33;97629.22;;;13.75;45.26
9439;BME280;5176;42.622;25.386;2023-01-08T13:01:13;97624.41;;;13.69;45.32
9439;BME280;5176;42.622;25.386;2023-01-08T13:03:43;97613.47;;;13.50;44.76
9439;BME280;5176;42.622;25.386;2023-01-08T13:06:13;97640.00;;;13.72;44.82
9439;BME280;5176;42.622;25.386;2023-01-08T13:08:45;97639.59;;;13.66;45.17
9439;BME280;5176;42.622;25.386;2023-01-08T13:11:25;97616.50;;;13.56;45.19
9439;BME280;5176;42.622;25.386;2023-01-08T13:14:02;97631.25;;;13.72;44.71
9439;BME280;5176;42.622;25.386;2023-01-08T13:16:32;97637.69;;;13.68;45.02
9439;BME280;5176;42.622;25.386;2023-01-08T13:19:01;97639.66;;;13.64;45.31
9439;BME280;5176;42.622;25.386;2023-01-08T13:21:32;97643.38;;;13.61;45.38
9439;BME280;5176;42.622;25.386;2023-01-08T13:24:03;97617.03;;;13.36;45.08
9439;BME280;5176;42.622;25.386;2023-01-08T13:26:34;97642.75;;;13.45;45.12
9439;BME280;5176;42.622;25.386;2023-01-08T13:29:07;97628.00;;;13.43;45.45
9439;BME280;5176;42.622;25.386;2023-01-08T13:31:38;97635.28;;;13.52;45.75